sensor_id;sensor_type;location;lat;lon;timestamp;P1;durP1;ratioP1;P2;durP2;ratioP2
76155;SDS011;64906;51.290;7.348;2023-05-07T00:00:35;5.53;;;3.10;;
76155;SDS011;64906;51.290;7.348;2023-05-07T00:03:00;5.37;;;2.70;;
76155;SDS011;64906;51.290;7.348;2023-05-07T00:05:26;5.45;;;3.13;;
76155;SDS011;64906;51.290;7.348;2023-05-07T00:07:51;5.50;;;3.45;;
76155;SDS011;64906;51.290;7.348;2023-05-07T00:10:17;5.38;;;3.03;;
76155;SDS011;64906;51.290;7.348;2023-05-07T00:12:43;5.10;;;2.92;;
76155;SDS011;64906;51.290;7.348;2023-05-07T00:15:09;6.20;;;2.75;;
76155;SDS011;64906;51.290;7.348;2023-05-07T00:17:35;5.63;;;3.00;;
76155;SDS011;64906;51.290;7.348;2023-05-07T00:20:01;5.07;;;2.80;;
76155;SDS011;64906;51.290;7.348;2023-05-07T00:22:28;4.90;;;2.75;;
76155;SDS011;64906;51.290;7.348;2023-05-07T00:24:55;4.72;;;2.83;;
76155;SDS011;64906;51.290;7.348;2023-05-07T00:27:20;4.70;;;3.00;;
76155;SDS011;64906;51.290;7.348;2023-05-07T00:29:45;5.93;;;3.10;;
76155;SDS011;64906;51.290;7.348;2023-05-07T00:32:10;5.23;;;3.10;;
76155;SDS011;64906;51.290;7.348;2023-05-07T00:34:36;4.90;;;2.73;;
76155;SDS011;64906;51.290;7.348;2023-05-07T00:37:01;4.63;;;2.53;;
76155;SDS011;64906;51.290;7.348;2023-05-07T00:39:26;5.27;;;2.57;;
76155;SDS011;64906;51.290;7.348;2023-05-07T00:41:52;4.33;;;2.50;;
76155;SDS011;64906;51.290;7.348;2023-05-07T00:44:17;5.68;;;3.15;;
76155;SDS011;64906;51.290;7.348;2023-05-07T00:46:43;4.53;;;2.70;;
76155;SDS011;64906;51.290;7.348;2023-05-07T00:49:10;5.07;;;2.65;;
76155;SDS011;64906;51.290;7.348;2023-05-07T00:51:35;4.88;;;2.78;;
76155;SDS011;64906;51.290;7.348;2023-05-07T00:54:02;5.10;;;2.90;;
76155;SDS011;64906;51.290;7.348;2023-05-07T00:56:28;5.45;;;2.45;;
76155;SDS011;64906;51.290;7.348;2023-05-07T00:58:53;5.50;;;2.63;;
76155;SDS011;64906;51.290;7.348;2023-05-07T01:01:19;4.20;;;2.25;;
76155;SDS011;64906;51.290;7.348;2023-05-07T01:03:44;5.40;;;2.87;;
76155;SDS011;64906;51.290;7.348;2023-05-07T01:06:10;4.82;;;2.63;;
76155;SDS011;64906;51.290;7.348;2023-05-07T01:08:37;5.57;;;2.90;;
76155;SDS011;64906;51.290;7.348;2023-05-07T01:11:07;4.75;;;2.53;;
76155;SDS011;64906;51.290;7.348;2023-05-07T01:13:33;4.75;;;2.70;;
76155;SDS011;64906;51.290;7.348;2023-05-07T01:16:00;4.55;;;2.40;;
76155;SDS011;64906;51.290;7.348;2023-05-07T01:18:25;4.72;;;2.65;;
76155;SDS011;64906;51.290;7.348;2023-05-07T01:20:51;5.20;;;2.60;;
76155;SDS011;64906;51.290;7.348;2023-05-07T01:23:17;5.65;;;2.30;;
76155;SDS011;64906;51.290;7.348;2023-05-07T01:25:43;4.30;;;2.50;;
76155;SDS011;64906;51.290;7.348;2023-05-07T01:28:08;5.37;;;2.93;;
76155;SDS011;64906;51.290;7.348;2023-05-07T01:30:33;5.57;;;2.70;;
76155;SDS011;64906;51.290;7.348;2023-05-07T01:33:08;4.57;;;2.40;;
76155;SDS011;64906;51.290;7.348;2023-05-07T01:35:39;4.75;;;2.70;;
76155;SDS011;64906;51.290;7.348;2023-05-07T01:38:06;4.57;;;2.13;;
76155;SDS011;64906;51.290;7.348;2023-05-07T01:40:33;4.95;;;2.40;;
76155;SDS011;64906;51.290;7.348;2023-05-07T01:42:59;4.90;;;2.25;;
76155;SDS011;64906;51.290;7.348;2023-05-07T01:45:26;4.65;;;2.50;;
76155;SDS011;64906;51.290;7.348;2023-05-07T01:47:52;4.50;;;2.55;;
76155;SDS011;64906;51.290;7.348;2023-05-07T01:50:18;4.60;;;2.42;;
76155;SDS011;64906;51.290;7.348;2023-05-07T01:52:45;4.95;;;2.53;;
76155;SDS011;64906;51.290;7.348;2023-05-07T01:55:11;4.35;;;2.38;;
76155;SDS011;64906;51.290;7.348;2023-05-07T01:57:37;4.05;;;2.22;;
76155;SDS011;64906;51.290;7.348;2023-05-07T02:00:02;4.33;;;2.53;;
76155;SDS011;64906;51.290;7.348;2023-05-07T02:02:30;4.28;;;2.22;;
76155;SDS011;64906;51.290;7.348;2023-05-07T02:04:55;4.43;;;2.38;;
76155;SDS011;64906;51.290;7.348;2023-05-07T02:07:20;4.20;;;2.20;;
76155;SDS011;64906;51.290;7.348;2023-05-07T02:09:46;4.53;;;2.27;;
76155;SDS011;64906;51.290;7.348;2023-05-07T02:12:11;4.10;;;2.30;;
76155;SDS011;64906;51.290;7.348;2023-05-07T02:14:36;4.70;;;2.53;;
76155;SDS011;64906;51.290;7.348;2023-05-07T02:17:01;4.70;;;2.47;;
76155;SDS011;64906;51.290;7.348;2023-05-07T02:19:27;5.30;;;2.47;;
76155;SDS011;64906;51.290;7.348;2023-05-07T02:21:52;4.07;;;2.10;;
76155;SDS011;64906;51.290;7.348;2023-05-07T02:24:18;4.15;;;2.03;;
76155;SDS011;64906;51.290;7.348;2023-05-07T02:26:43;4.57;;;2.33;;
76155;SDS011;64906;51.290;7.348;2023-05-07T02:29:08;6.97;;;2.53;;
76155;SDS011;64906;51.290;7.348;2023-05-07T02:31:33;4.40;;;2.30;;
76155;SDS011;64906;51.290;7.348;2023-05-07T02:33:59;5.55;;;2.40;;
76155;SDS011;64906;51.290;7.348;2023-05-07T02:36:25;4.13;;;2.03;;
76155;SDS011;64906;51.290;7.348;2023-05-07T02:38:51;5.13;;;2.40;;
76155;SDS011;64906;51.290;7.348;2023-05-07T02:41:17;4.00;;;2.00;;
76155;SDS011;64906;51.290;7.348;2023-05-07T02:43:42;4.17;;;2.20;;
76155;SDS011;64906;51.290;7.348;2023-05-07T02:46:08;4.83;;;2.33;;
76155;SDS011;64906;51.290;7.348;2023-05-07T02:48:33;4.53;;;2.63;;
76155;SDS011;64906;51.290;7.348;2023-05-07T02:50:59;4.40;;;2.17;;
76155;SDS011;64906;51.290;7.348;2023-05-07T02:53:25;4.32;;;2.10;;
76155;SDS011;64906;51.290;7.348;2023-05-07T02:55:57;4.00;;;2.20;;
76155;SDS011;64906;51.290;7.348;2023-05-07T02:58:23;4.00;;;2.10;;
76155;SDS011;64906;51.290;7.348;2023-05-07T03:00:49;3.88;;;1.92;;
76155;SDS011;64906;51.290;7.348;2023-05-07T03:03:15;4.10;;;2.05;;
76155;SDS011;64906;51.290;7.348;2023-05-07T03:05:40;3.95;;;2.00;;
76155;SDS011;64906;51.290;7.348;2023-05-07T03:08:06;4.25;;;2.42;;
76155;SDS011;64906;51.290;7.348;2023-05-07T03:10:31;3.95;;;2.13;;
76155;SDS011;64906;51.290;7.348;2023-05-07T03:12:57;3.70;;;2.10;;
76155;SDS011;64906;51.290;7.348;2023-05-07T03:15:22;3.50;;;1.60;;
76155;SDS011;64906;51.290;7.348;2023-05-07T03:17:47;4.37;;;2.10;;
76155;SDS011;64906;51.290;7.348;2023-05-07T03:20:13;4.13;;;2.10;;
76155;SDS011;64906;51.290;7.348;2023-05-07T03:22:38;4.65;;;2.50;;
76155;SDS011;64906;51.290;7.348;2023-05-07T03:25:04;3.92;;;1.92;;
76155;SDS011;64906;51.290;7.348;2023-05-07T03:27:30;4.15;;;2.05;;
76155;SDS011;64906;51.290;7.348;2023-05-07T03:29:55;4.40;;;2.10;;
76155;SDS011;64906;51.290;7.348;2023-05-07T03:32:21;4.23;;;2.23;;
76155;SDS011;64906;51.290;7.348;2023-05-07T03:34:46;3.87;;;1.87;;
76155;SDS011;64906;51.290;7.348;2023-05-07T03:37:11;4.20;;;1.93;;
76155;SDS011;64906;51.290;7.348;2023-05-07T03:39:36;4.33;;;2.40;;
76155;SDS011;64906;51.290;7.348;2023-05-07T03:42:02;4.10;;;2.10;;
76155;SDS011;64906;51.290;7.348;2023-05-07T03:44:27;4.05;;;2.00;;
76155;SDS011;64906;51.290;7.348;2023-05-07T03:46:53;3.38;;;1.67;;
76155;SDS011;64906;51.290;7.348;2023-05-07T03:49:18;3.83;;;2.00;;
76155;SDS011;64906;51.290;7.348;2023-05-07T03:51:43;3.50;;;1.80;;
76155;SDS011;64906;51.290;7.348;2023-05-07T03:54:09;3.83;;;1.90;;
76155;SDS011;64906;51.290;7.348;2023-05-07T03:56:34;3.83;;;1.80;;
76155;SDS011;64906;51.290;7.348;2023-05-07T03:59:00;3.47;;;1.80;;
76155;SDS011;64906;51.290;7.348;2023-05-07T04:01:25;5.63;;;2.10;;
76155;SDS011;64906;51.290;7.348;2023-05-07T04:03:51;4.47;;;2.27;;
76155;SDS011;64906;51.290;7.348;2023-05-07T04:06:16;4.28;;;2.15;;
76155;SDS011;64906;51.290;7.348;2023-05-07T04:08:44;4.38;;;2.13;;
76155;SDS011;64906;51.290;7.348;2023-05-07T04:11:09;4.07;;;2.10;;
76155;SDS011;64906;51.290;7.348;2023-05-07T04:13:34;4.37;;;2.17;;
76155;SDS011;64906;51.290;7.348;2023-05-07T04:16:01;3.90;;;2.03;;
76155;SDS011;64906;51.290;7.348;2023-05-07T04:18:27;4.20;;;1.88;;
76155;SDS011;64906;51.290;7.348;2023-05-07T04:20:52;3.92;;;2.00;;
76155;SDS011;64906;51.290;7.348;2023-05-07T04:23:18;4.00;;;2.00;;
76155;SDS011;64906;51.290;7.348;2023-05-07T04:25:43;4.00;;;1.97;;
76155;SDS011;64906;51.290;7.348;2023-05-07T04:28:08;4.33;;;2.03;;
76155;SDS011;64906;51.290;7.348;2023-05-07T04:30:34;3.63;;;1.77;;
76155;SDS011;64906;51.290;7.348;2023-05-07T04:32:59;4.20;;;2.17;;
76155;SDS011;64906;51.290;7.348;2023-05-07T04:35:24;4.07;;;2.10;;
76155;SDS011;64906;51.290;7.348;2023-05-07T04:37:49;3.20;;;1.60;;
76155;SDS011;64906;51.290;7.348;2023-05-07T04:40:15;3.90;;;1.80;;
76155;SDS011;64906;51.290;7.348;2023-05-07T04:42:40;3.42;;;1.77;;
76155;SDS011;64906;51.290;7.348;2023-05-07T04:45:06;3.50;;;1.70;;
76155;SDS011;64906;51.290;7.348;2023-05-07T04:47:31;4.20;;;2.03;;
76155;SDS011;64906;51.290;7.348;2023-05-07T04:49:57;4.00;;;2.00;;
76155;SDS011;64906;51.290;7.348;2023-05-07T04:52:23;3.50;;;1.75;;
76155;SDS011;64906;51.290;7.348;2023-05-07T04:54:48;3.80;;;2.00;;
76155;SDS011;64906;51.290;7.348;2023-05-07T04:57:13;3.77;;;1.90;;
76155;SDS011;64906;51.290;7.348;2023-05-07T04:59:39;3.83;;;1.70;;
76155;SDS011;64906;51.290;7.348;2023-05-07T05:02:04;3.95;;;2.05;;
76155;SDS011;64906;51.290;7.348;2023-05-07T05:04:30;4.10;;;2.17;;
76155;SDS011;64906;51.290;7.348;2023-05-07T05:06:55;3.37;;;1.50;;
76155;SDS011;64906;51.290;7.348;2023-05-07T05:09:21;4.40;;;1.93;;
76155;SDS011;64906;51.290;7.348;2023-05-07T05:11:46;3.13;;;1.50;;
76155;SDS011;64906;51.290;7.348;2023-05-07T05:14:11;4.40;;;1.80;;
76155;SDS011;64906;51.290;7.348;2023-05-07T05:16:36;3.27;;;1.80;;
76155;SDS011;64906;51.290;7.348;2023-05-07T05:19:02;3.93;;;1.80;;
76155;SDS011;64906;51.290;7.348;2023-05-07T05:21:27;3.50;;;1.60;;
76155;SDS011;64906;51.290;7.348;2023-05-07T05:23:52;3.30;;;1.67;;
76155;SDS011;64906;51.290;7.348;2023-05-07T05:26:17;3.80;;;1.70;;
76155;SDS011;64906;51.290;7.348;2023-05-07T05:28:43;3.47;;;1.80;;
76155;SDS011;64906;51.290;7.348;2023-05-07T05:31:08;4.00;;;1.87;;
76155;SDS011;64906;51.290;7.348;2023-05-07T05:33:34;3.17;;;1.70;;
76155;SDS011;64906;51.290;7.348;2023-05-07T05:35:59;3.42;;;1.60;;
76155;SDS011;64906;51.290;7.348;2023-05-07T05:38:25;3.47;;;1.70;;
76155;SDS011;64906;51.290;7.348;2023-05-07T05:40:50;3.45;;;1.85;;
76155;SDS011;64906;51.290;7.348;2023-05-07T05:43:16;3.57;;;1.70;;
76155;SDS011;64906;51.290;7.348;2023-05-07T05:45:41;3.60;;;1.70;;
76155;SDS011;64906;51.290;7.348;2023-05-07T05:48:06;3.83;;;1.80;;
76155;SDS011;64906;51.290;7.348;2023-05-07T05:50:33;5.15;;;1.60;;
76155;SDS011;64906;51.290;7.348;2023-05-07T05:53:00;3.67;;;1.48;;
76155;SDS011;64906;51.290;7.348;2023-05-07T05:55:26;2.97;;;1.40;;
76155;SDS011;64906;51.290;7.348;2023-05-07T05:57:51;3.85;;;1.60;;
76155;SDS011;64906;51.290;7.348;2023-05-07T06:00:17;3.33;;;1.60;;
76155;SDS011;64906;51.290;7.348;2023-05-07T06:02:42;3.83;;;2.00;;
76155;SDS011;64906;51.290;7.348;2023-05-07T06:05:08;3.27;;;1.70;;
76155;SDS011;64906;51.290;7.348;2023-05-07T06:07:33;3.63;;;1.80;;
76155;SDS011;64906;51.290;7.348;2023-05-07T06:09:59;3.47;;;1.75;;
76155;SDS011;64906;51.290;7.348;2023-05-07T06:12:25;3.03;;;1.52;;
76155;SDS011;64906;51.290;7.348;2023-05-07T06:14:50;3.50;;;1.70;;
76155;SDS011;64906;51.290;7.348;2023-05-07T06:17:16;3.10;;;1.60;;
76155;SDS011;64906;51.290;7.348;2023-05-07T06:19:41;3.07;;;1.43;;
76155;SDS011;64906;51.290;7.348;2023-05-07T06:22:06;3.30;;;1.60;;
76155;SDS011;64906;51.290;7.348;2023-05-07T06:24:32;3.72;;;1.80;;
76155;SDS011;64906;51.290;7.348;2023-05-07T06:26:57;3.73;;;1.80;;
76155;SDS011;64906;51.290;7.348;2023-05-07T06:29:23;3.38;;;1.80;;
76155;SDS011;64906;51.290;7.348;2023-05-07T06:31:50;3.25;;;1.33;;
76155;SDS011;64906;51.290;7.348;2023-05-07T06:34:16;3.63;;;1.80;;
76155;SDS011;64906;51.290;7.348;2023-05-07T06:36:41;3.77;;;1.73;;
76155;SDS011;64906;51.290;7.348;2023-05-07T06:39:07;3.58;;;1.65;;
76155;SDS011;64906;51.290;7.348;2023-05-07T06:41:32;3.37;;;1.57;;
76155;SDS011;64906;51.290;7.348;2023-05-07T06:43:57;3.03;;;1.40;;
76155;SDS011;64906;51.290;7.348;2023-05-07T06:46:23;3.40;;;1.50;;
76155;SDS011;64906;51.290;7.348;2023-05-07T06:48:48;3.97;;;1.60;;
76155;SDS011;64906;51.290;7.348;2023-05-07T06:51:13;3.70;;;1.40;;
76155;SDS011;64906;51.290;7.348;2023-05-07T06:53:38;3.40;;;1.80;;
76155;SDS011;64906;51.290;7.348;2023-05-07T06:56:04;3.15;;;1.45;;
76155;SDS011;64906;51.290;7.348;2023-05-07T06:58:29;3.53;;;1.50;;
76155;SDS011;64906;51.290;7.348;2023-05-07T07:00:55;3.90;;;1.75;;
76155;SDS011;64906;51.290;7.348;2023-05-07T07:03:20;3.20;;;1.37;;
76155;SDS011;64906;51.290;7.348;2023-05-07T07:05:45;3.03;;;1.40;;
76155;SDS011;64906;51.290;7.348;2023-05-07T07:08:11;3.97;;;1.80;;
76155;SDS011;64906;51.290;7.348;2023-05-07T07:10:36;4.00;;;1.50;;
76155;SDS011;64906;51.290;7.348;2023-05-07T07:13:01;3.05;;;1.55;;
76155;SDS011;64906;51.290;7.348;2023-05-07T07:15:26;3.43;;;1.70;;
76155;SDS011;64906;51.290;7.348;2023-05-07T07:17:52;3.20;;;1.40;;
76155;SDS011;64906;51.290;7.348;2023-05-07T07:20:17;3.20;;;1.53;;
76155;SDS011;64906;51.290;7.348;2023-05-07T07:22:42;3.83;;;1.70;;
76155;SDS011;64906;51.290;7.348;2023-05-07T07:25:08;4.83;;;1.57;;
76155;SDS011;64906;51.290;7.348;2023-05-07T07:27:33;3.20;;;1.40;;
76155;SDS011;64906;51.290;7.348;2023-05-07T07:29:59;3.43;;;1.30;;
76155;SDS011;64906;51.290;7.348;2023-05-07T07:32:24;3.00;;;1.30;;
76155;SDS011;64906;51.290;7.348;2023-05-07T07:34:49;3.13;;;1.43;;
76155;SDS011;64906;51.290;7.348;2023-05-07T07:37:15;2.80;;;1.30;;
76155;SDS011;64906;51.290;7.348;2023-05-07T07:39:40;3.20;;;1.50;;
76155;SDS011;64906;51.290;7.348;2023-05-07T07:42:06;3.42;;;1.70;;
76155;SDS011;64906;51.290;7.348;2023-05-07T07:44:31;3.33;;;1.35;;
76155;SDS011;64906;51.290;7.348;2023-05-07T07:46:56;3.57;;;1.67;;
76155;SDS011;64906;51.290;7.348;2023-05-07T07:49:22;3.37;;;1.47;;
76155;SDS011;64906;51.290;7.348;2023-05-07T07:51:47;3.50;;;1.30;;
76155;SDS011;64906;51.290;7.348;2023-05-07T07:54:12;3.47;;;1.58;;
76155;SDS011;64906;51.290;7.348;2023-05-07T07:56:38;3.33;;;1.60;;
76155;SDS011;64906;51.290;7.348;2023-05-07T07:59:03;3.97;;;2.00;;
76155;SDS011;64906;51.290;7.348;2023-05-07T08:01:29;3.33;;;1.45;;
76155;SDS011;64906;51.290;7.348;2023-05-07T08:03:55;3.35;;;1.60;;
76155;SDS011;64906;51.290;7.348;2023-05-07T08:06:21;2.67;;;1.27;;
76155;SDS011;64906;51.290;7.348;2023-05-07T08:08:46;3.23;;;1.40;;
76155;SDS011;64906;51.290;7.348;2023-05-07T08:11:11;3.00;;;1.20;;
76155;SDS011;64906;51.290;7.348;2023-05-07T08:13:36;3.28;;;1.42;;
76155;SDS011;64906;51.290;7.348;2023-05-07T08:16:03;3.20;;;1.48;;
76155;SDS011;64906;51.290;7.348;2023-05-07T08:18:29;3.13;;;1.42;;
76155;SDS011;64906;51.290;7.348;2023-05-07T08:20:54;3.63;;;1.40;;
76155;SDS011;64906;51.290;7.348;2023-05-07T08:23:20;3.17;;;1.43;;
76155;SDS011;64906;51.290;7.348;2023-05-07T08:25:46;2.90;;;1.30;;
76155;SDS011;64906;51.290;7.348;2023-05-07T08:28:11;3.23;;;1.30;;
76155;SDS011;64906;51.290;7.348;2023-05-07T08:30:36;3.13;;;1.40;;
76155;SDS011;64906;51.290;7.348;2023-05-07T08:33:02;3.55;;;1.38;;
76155;SDS011;64906;51.290;7.348;2023-05-07T08:35:27;3.63;;;1.40;;
76155;SDS011;64906;51.290;7.348;2023-05-07T08:37:53;3.92;;;1.40;;
76155;SDS011;64906;51.290;7.348;2023-05-07T08:40:18;3.15;;;1.50;;
76155;SDS011;64906;51.290;7.348;2023-05-07T08:42:44;3.25;;;1.55;;
76155;SDS011;64906;51.290;7.348;2023-05-07T08:45:10;3.00;;;1.30;;
76155;SDS011;64906;51.290;7.348;2023-05-07T08:47:40;3.45;;;1.42;;
76155;SDS011;64906;51.290;7.348;2023-05-07T08:50:09;2.92;;;1.30;;
76155;SDS011;64906;51.290;7.348;2023-05-07T08:52:35;3.40;;;1.50;;
76155;SDS011;64906;51.290;7.348;2023-05-07T08:55:02;2.80;;;1.35;;
76155;SDS011;64906;51.290;7.348;2023-05-07T08:57:27;3.17;;;1.40;;
76155;SDS011;64906;51.290;7.348;2023-05-07T08:59:53;2.90;;;1.30;;
76155;SDS011;64906;51.290;7.348;2023-05-07T09:02:18;3.00;;;1.30;;
76155;SDS011;64906;51.290;7.348;2023-05-07T09:04:44;3.10;;;1.38;;
76155;SDS011;64906;51.290;7.348;2023-05-07T09:07:09;3.05;;;1.50;;
76155;SDS011;64906;51.290;7.348;2023-05-07T09:09:34;3.47;;;1.30;;
76155;SDS011;64906;51.290;7.348;2023-05-07T09:12:00;3.80;;;1.17;;
76155;SDS011;64906;51.290;7.348;2023-05-07T09:14:27;3.25;;;1.60;;
76155;SDS011;64906;51.290;7.348;2023-05-07T09:16:52;2.85;;;1.25;;
76155;SDS011;64906;51.290;7.348;2023-05-07T09:19:22;2.90;;;1.15;;
76155;SDS011;64906;51.290;7.348;2023-05-07T09:21:48;3.10;;;1.40;;
76155;SDS011;64906;51.290;7.348;2023-05-07T09:24:14;3.33;;;1.50;;
76155;SDS011;64906;51.290;7.348;2023-05-07T09:26:40;2.70;;;1.17;;
76155;SDS011;64906;51.290;7.348;2023-05-07T09:29:06;3.10;;;1.55;;
76155;SDS011;64906;51.290;7.348;2023-05-07T09:31:35;3.00;;;1.27;;
76155;SDS011;64906;51.290;7.348;2023-05-07T09:34:04;2.88;;;1.30;;
76155;SDS011;64906;51.290;7.348;2023-05-07T09:36:31;2.70;;;1.20;;
76155;SDS011;64906;51.290;7.348;2023-05-07T09:38:58;3.17;;;1.20;;
76155;SDS011;64906;51.290;7.348;2023-05-07T09:41:25;3.25;;;1.30;;
76155;SDS011;64906;51.290;7.348;2023-05-07T09:43:54;2.75;;;1.23;;
76155;SDS011;64906;51.290;7.348;2023-05-07T09:46:21;3.10;;;1.30;;
76155;SDS011;64906;51.290;7.348;2023-05-07T09:48:52;2.80;;;1.30;;
76155;SDS011;64906;51.290;7.348;2023-05-07T09:51:30;2.95;;;1.27;;
76155;SDS011;64906;51.290;7.348;2023-05-07T09:54:03;3.00;;;1.17;;
76155;SDS011;64906;51.290;7.348;2023-05-07T09:56:30;3.22;;;1.30;;
76155;SDS011;64906;51.290;7.348;2023-05-07T09:58:57;2.65;;;1.05;;
76155;SDS011;64906;51.290;7.348;2023-05-07T10:01:28;3.08;;;1.33;;
76155;SDS011;64906;51.290;7.348;2023-05-07T10:03:55;3.10;;;1.50;;
76155;SDS011;64906;51.290;7.348;2023-05-07T10:06:23;3.40;;;1.33;;
76155;SDS011;64906;51.290;7.348;2023-05-07T10:08:50;2.63;;;1.15;;
76155;SDS011;64906;51.290;7.348;2023-05-07T10:11:17;2.78;;;1.20;;
76155;SDS011;64906;51.290;7.348;2023-05-07T10:13:42;3.15;;;1.45;;
76155;SDS011;64906;51.290;7.348;2023-05-07T10:16:08;2.90;;;1.30;;
76155;SDS011;64906;51.290;7.348;2023-05-07T10:18:34;2.83;;;1.23;;
76155;SDS011;64906;51.290;7.348;2023-05-07T10:23:41;3.30;;;1.60;;
76155;SDS011;64906;51.290;7.348;2023-05-07T10:26:17;3.08;;;1.33;;
76155;SDS011;64906;51.290;7.348;2023-05-07T10:28:46;3.15;;;1.30;;
76155;SDS011;64906;51.290;7.348;2023-05-07T10:34:08;2.75;;;1.15;;
76155;SDS011;64906;51.290;7.348;2023-05-07T10:36:37;2.75;;;1.20;;
76155;SDS011;64906;51.290;7.348;2023-05-07T10:39:02;3.00;;;1.40;;
76155;SDS011;64906;51.290;7.348;2023-05-07T10:41:28;2.90;;;1.20;;
76155;SDS011;64906;51.290;7.348;2023-05-07T10:43:53;3.00;;;1.30;;
76155;SDS011;64906;51.290;7.348;2023-05-07T10:46:19;2.83;;;1.40;;
76155;SDS011;64906;51.290;7.348;2023-05-07T10:51:27;2.85;;;1.25;;
76155;SDS011;64906;51.290;7.348;2023-05-07T10:56:36;3.10;;;1.27;;
76155;SDS011;64906;51.290;7.348;2023-05-07T11:01:53;2.75;;;1.30;;
76155;SDS011;64906;51.290;7.348;2023-05-07T11:04:19;3.17;;;1.38;;
76155;SDS011;64906;51.290;7.348;2023-05-07T11:15:01;3.58;;;1.67;;
76155;SDS011;64906;51.290;7.348;2023-05-07T11:17:29;3.00;;;1.23;;
76155;SDS011;64906;51.290;7.348;2023-05-07T11:19:57;2.90;;;1.30;;
76155;SDS011;64906;51.290;7.348;2023-05-07T11:25:01;2.53;;;1.00;;
76155;SDS011;64906;51.290;7.348;2023-05-07T11:27:28;2.90;;;1.30;;
76155;SDS011;64906;51.290;7.348;2023-05-07T11:29:54;3.20;;;1.35;;
76155;SDS011;64906;51.290;7.348;2023-05-07T11:32:27;2.72;;;1.13;;
76155;SDS011;64906;51.290;7.348;2023-05-07T11:34:54;2.90;;;1.30;;
76155;SDS011;64906;51.290;7.348;2023-05-07T11:37:20;3.22;;;1.65;;
76155;SDS011;64906;51.290;7.348;2023-05-07T11:39:47;2.85;;;1.25;;
76155;SDS011;64906;51.290;7.348;2023-05-07T11:42:35;3.13;;;1.23;;
76155;SDS011;64906;51.290;7.348;2023-05-07T11:45:05;2.72;;;1.05;;
76155;SDS011;64906;51.290;7.348;2023-05-07T11:47:31;2.90;;;1.20;;
76155;SDS011;64906;51.290;7.348;2023-05-07T11:49:57;3.15;;;1.35;;
76155;SDS011;64906;51.290;7.348;2023-05-07T11:52:28;3.25;;;1.17;;
76155;SDS011;64906;51.290;7.348;2023-05-07T11:54:54;3.00;;;1.10;;
76155;SDS011;64906;51.290;7.348;2023-05-07T11:57:21;2.72;;;1.30;;
76155;SDS011;64906;51.290;7.348;2023-05-07T11:59:47;2.70;;;1.10;;
76155;SDS011;64906;51.290;7.348;2023-05-07T12:02:13;2.90;;;1.40;;
76155;SDS011;64906;51.290;7.348;2023-05-07T12:04:40;2.95;;;1.23;;
76155;SDS011;64906;51.290;7.348;2023-05-07T12:07:06;3.20;;;1.30;;
76155;SDS011;64906;51.290;7.348;2023-05-07T12:09:36;2.90;;;1.20;;
76155;SDS011;64906;51.290;7.348;2023-05-07T12:12:04;3.30;;;1.40;;
76155;SDS011;64906;51.290;7.348;2023-05-07T12:14:30;3.10;;;1.40;;
76155;SDS011;64906;51.290;7.348;2023-05-07T12:16:56;3.22;;;1.30;;
76155;SDS011;64906;51.290;7.348;2023-05-07T12:19:22;3.03;;;1.38;;
76155;SDS011;64906;51.290;7.348;2023-05-07T12:21:47;3.05;;;1.38;;
76155;SDS011;64906;51.290;7.348;2023-05-07T12:24:14;2.65;;;1.20;;
76155;SDS011;64906;51.290;7.348;2023-05-07T12:26:39;2.45;;;1.00;;
76155;SDS011;64906;51.290;7.348;2023-05-07T12:29:06;3.22;;;1.40;;
76155;SDS011;64906;51.290;7.348;2023-05-07T12:31:32;2.90;;;1.25;;
76155;SDS011;64906;51.290;7.348;2023-05-07T12:33:57;2.97;;;1.20;;
76155;SDS011;64906;51.290;7.348;2023-05-07T12:36:22;2.87;;;1.40;;
76155;SDS011;64906;51.290;7.348;2023-05-07T12:38:49;2.60;;;1.17;;
76155;SDS011;64906;51.290;7.348;2023-05-07T12:41:15;4.85;;;2.10;;
76155;SDS011;64906;51.290;7.348;2023-05-07T12:43:41;6.50;;;2.30;;
76155;SDS011;64906;51.290;7.348;2023-05-07T12:46:09;11.57;;;2.55;;
76155;SDS011;64906;51.290;7.348;2023-05-07T12:48:41;4.25;;;2.08;;
76155;SDS011;64906;51.290;7.348;2023-05-07T12:51:08;4.95;;;2.40;;
76155;SDS011;64906;51.290;7.348;2023-05-07T12:53:39;4.10;;;1.90;;
76155;SDS011;64906;51.290;7.348;2023-05-07T12:56:05;7.38;;;2.00;;
76155;SDS011;64906;51.290;7.348;2023-05-07T12:58:32;4.70;;;2.20;;
76155;SDS011;64906;51.290;7.348;2023-05-07T13:01:00;7.50;;;2.70;;
76155;SDS011;64906;51.290;7.348;2023-05-07T13:03:37;5.65;;;2.25;;
76155;SDS011;64906;51.290;7.348;2023-05-07T13:06:03;4.88;;;2.40;;
76155;SDS011;64906;51.290;7.348;2023-05-07T13:08:37;5.53;;;2.50;;
76155;SDS011;64906;51.290;7.348;2023-05-07T13:11:08;7.53;;;2.78;;
76155;SDS011;64906;51.290;7.348;2023-05-07T13:13:35;6.60;;;2.88;;
76155;SDS011;64906;51.290;7.348;2023-05-07T13:16:02;5.13;;;2.75;;
76155;SDS011;64906;51.290;7.348;2023-05-07T13:18:31;6.03;;;3.08;;
76155;SDS011;64906;51.290;7.348;2023-05-07T13:20:57;7.20;;;2.67;;
76155;SDS011;64906;51.290;7.348;2023-05-07T13:23:23;6.65;;;2.75;;
76155;SDS011;64906;51.290;7.348;2023-05-07T13:25:49;5.25;;;2.50;;
76155;SDS011;64906;51.290;7.348;2023-05-07T13:28:14;5.88;;;2.67;;
76155;SDS011;64906;51.290;7.348;2023-05-07T13:30:40;7.20;;;2.90;;
76155;SDS011;64906;51.290;7.348;2023-05-07T13:33:08;6.85;;;3.00;;
76155;SDS011;64906;51.290;7.348;2023-05-07T13:35:34;7.28;;;2.60;;
76155;SDS011;64906;51.290;7.348;2023-05-07T13:38:00;6.93;;;3.05;;
76155;SDS011;64906;51.290;7.348;2023-05-07T13:40:25;6.53;;;3.20;;
76155;SDS011;64906;51.290;7.348;2023-05-07T13:42:50;6.80;;;2.97;;
76155;SDS011;64906;51.290;7.348;2023-05-07T13:45:17;6.50;;;2.63;;
76155;SDS011;64906;51.290;7.348;2023-05-07T13:47:43;6.10;;;2.75;;
76155;SDS011;64906;51.290;7.348;2023-05-07T13:50:09;6.53;;;2.72;;
76155;SDS011;64906;51.290;7.348;2023-05-07T13:52:36;6.05;;;2.78;;
76155;SDS011;64906;51.290;7.348;2023-05-07T13:55:02;5.13;;;2.67;;
76155;SDS011;64906;51.290;7.348;2023-05-07T13:57:28;7.28;;;2.83;;
76155;SDS011;64906;51.290;7.348;2023-05-07T13:59:53;9.67;;;3.20;;
76155;SDS011;64906;51.290;7.348;2023-05-07T14:02:19;7.60;;;3.27;;
76155;SDS011;64906;51.290;7.348;2023-05-07T14:04:44;8.90;;;4.07;;
76155;SDS011;64906;51.290;7.348;2023-05-07T14:07:10;12.18;;;4.35;;
76155;SDS011;64906;51.290;7.348;2023-05-07T14:09:35;7.95;;;3.78;;
76155;SDS011;64906;51.290;7.348;2023-05-07T14:12:01;14.80;;;4.87;;
76155;SDS011;64906;51.290;7.348;2023-05-07T14:14:26;18.00;;;5.97;;
76155;SDS011;64906;51.290;7.348;2023-05-07T14:16:52;24.30;;;9.23;;
76155;SDS011;64906;51.290;7.348;2023-05-07T14:19:17;23.03;;;11.37;;
76155;SDS011;64906;51.290;7.348;2023-05-07T14:21:42;35.73;;;13.03;;
76155;SDS011;64906;51.290;7.348;2023-05-07T14:24:08;42.27;;;16.93;;
76155;SDS011;64906;51.290;7.348;2023-05-07T14:26:36;61.92;;;25.45;;
76155;SDS011;64906;51.290;7.348;2023-05-07T14:29:01;71.87;;;28.17;;
76155;SDS011;64906;51.290;7.348;2023-05-07T14:31:27;61.38;;;23.80;;
76155;SDS011;64906;51.290;7.348;2023-05-07T14:33:53;66.15;;;26.65;;
76155;SDS011;64906;51.290;7.348;2023-05-07T14:36:18;65.97;;;28.00;;
76155;SDS011;64906;51.290;7.348;2023-05-07T14:38:47;72.90;;;30.27;;
76155;SDS011;64906;51.290;7.348;2023-05-07T14:41:13;66.78;;;26.73;;
76155;SDS011;64906;51.290;7.348;2023-05-07T14:43:39;70.38;;;29.08;;
76155;SDS011;64906;51.290;7.348;2023-05-07T14:46:04;67.73;;;26.70;;
76155;SDS011;64906;51.290;7.348;2023-05-07T14:48:29;59.30;;;26.63;;
76155;SDS011;64906;51.290;7.348;2023-05-07T14:50:55;64.27;;;28.23;;
76155;SDS011;64906;51.290;7.348;2023-05-07T14:53:21;57.65;;;26.38;;
76155;SDS011;64906;51.290;7.348;2023-05-07T14:55:47;61.85;;;26.52;;
76155;SDS011;64906;51.290;7.348;2023-05-07T14:58:13;60.50;;;27.35;;
76155;SDS011;64906;51.290;7.348;2023-05-07T15:00:38;63.95;;;27.33;;
76155;SDS011;64906;51.290;7.348;2023-05-07T15:03:07;64.00;;;27.38;;